Williamsville, NY

11:53 PM EDT on July 20, 2017 (GMT -0400)
Cleve Hill | | Change Station

Elev 686 ft 42.94 °N, 78.77 °W | Updated 3 minutes ago

Mostly Cloudy
Mostly Cloudy
71.7 °F
Feels Like 71.7 °F
N
0.0
Wind Variable Wind from WSW
Gusts 3.0 mph

Today
High -- | Low -- °F
--% Chance of Precip.
Yesterday
High -- | Low -- °F
Precip. -- in
Pressure 29.93 in
Visibility 4.0 miles
Clouds Mostly Cloudy 500 ft
Mostly Cloudy 26000 ft
Dew Point 70 °F
Humidity 96%
Rainfall 1.42 in
Snow Depth Not available.
5:54 AM 8:47 PM
Waning Crescent, 7% visible
SPECI KBUF 210341Z 20006KT 4SM BKN005 BKN260 22/21 A2993 RMK AO2 T02170206
Pressure 29.93 in
Visibility 4.0 miles
Clouds Mostly Cloudy 500 ft
Mostly Cloudy 26000 ft
Dew Point 70 °F
Humidity 96%
Rainfall 1.42 in
Snow Depth Not available.
5:54 AM 8:47 PM
Waning Crescent, 7% visible
SPECI KBUF 210341Z 20006KT 4SM BKN005 BKN260 22/21 A2993 RMK AO2 T02170206

Get Severe Weather Alerts

Thanks for signing up!

Be on the lookout for a verification email in your inbox.

You'll start receiving the daily forecast at 6 AM.

×

10-Day Weather Forecast

Almanac

Astronomy

Jul. 20, 2017 Rise Set
Actual Time
Civil Twilight
Nautical Twilight
Astronomical Twilight
Moon
Length of Visible Light
Length of Day
Tomorrow will be .
, % of the Moon is Illuminated

Today's Extremes

State Highs State Lows

Community

WunderPhotos

Category 6

Welcome to Category 6. This is the collective home for Weather Underground's featured writeups by Dr. Jeff Masters (right), Bob Henson (left), Chris Burt, and other regular contributors.

Nearby

Air Quality

  Air Quality AQ Index Pollutant
Not available.

Snow Depth

Station Depth Elevation

Earthquake Activity

City Distance Mag. Time & Date
Minimum magnitude displayed is 2.5.

Coastal Water Temperatures

Place Temperature

Stations

Nearby Weather Stations

Station Location Temp. Windchill Dew Point Humidity Wind Precip. Elev Updated Type
                   

Watches & Warnings

There are currently no watches in effect.